Time;durP1;ratioP1;P1;durP2;ratioP2;P2;SDS_P1;SDS_P2;PMS_P1;PMS_P2;Temp;Humidity;BMP_temperature;BMP_pressure;BME280_temperature;BME280_humidity;BME280_pressure;Samples;Min_cycle;Max_cycle;Signal;HPM_P1;HPM_P2
2023/03/14 00:01:23;;;;;;;3.20;2.30;;;;;;;3.81;56.78;98356.36;105206;1261;61819;-25
2023/03/14 00:03:52;;;;;;;4.80;2.40;;;;;;;3.79;56.97;98349.60;105302;1265;73562;-25
2023/03/14 00:06:20;;;;;;;8.30;3.80;;;;;;;3.80;56.78;98348.66;105303;1261;75706;-25
2023/03/14 00:08:49;;;;;;;5.30;3.00;;;;;;;3.80;56.82;98339.90;105101;1266;74545;-25
2023/03/14 00:11:19;;;;;;;5.40;3.10;;;;;;;3.81;56.98;98342.09;105178;1266;61141;-25
2023/03/14 00:13:51;;;;;;;4.90;2.60;;;;;;;3.81;57.00;98338.34;105132;1268;61858;-25
2023/03/14 00:16:25;;;;;;;5.20;3.00;;;;;;;3.81;57.24;98341.27;105077;1261;75417;-25
2023/03/14 00:18:59;;;;;;;4.70;3.20;;;;;;;3.80;57.32;98337.84;105084;1260;75827;-25
2023/03/14 00:21:27;;;;;;;11.40;3.90;;;;;;;3.80;57.46;98339.73;105080;1261;74144;-25
2023/03/14 00:23:58;;;;;;;5.10;2.80;;;;;;;3.77;57.81;98331.20;105169;1261;61200;-25
2023/03/14 00:26:26;;;;;;;4.90;3.30;;;;;;;3.75;57.65;98328.21;105176;1264;61900;-25
2023/03/14 00:28:55;;;;;;;6.20;3.70;;;;;;;3.75;57.67;98329.42;105722;1254;75315;-25
2023/03/14 00:31:23;;;;;;;5.80;2.90;;;;;;;3.72;57.95;98326.17;105669;1257;75987;-25
2023/03/14 00:33:52;;;;;;;5.10;3.30;;;;;;;3.71;57.75;98320.06;105677;1253;74188;-25
2023/03/14 00:36:21;;;;;;;4.30;3.10;;;;;;;3.72;57.90;98315.84;105630;1253;61225;-25
2023/03/14 00:38:50;;;;;;;4.20;3.00;;;;;;;3.69;58.14;98323.58;105578;1259;61947;-25
2023/03/14 00:41:24;;;;;;;4.60;3.10;;;;;;;3.67;58.22;98314.80;105539;1259;75158;-25
2023/03/14 00:43:52;;;;;;;5.30;3.50;;;;;;;3.66;58.36;98311.14;105584;1253;75040;-25
2023/03/14 00:46:21;;;;;;;7.10;3.40;;;;;;;3.64;58.39;98312.80;105922;1257;74302;-25
2023/03/14 00:48:50;;;;;;;3.40;2.20;;;;;;;3.61;58.70;98313.16;105897;1254;61236;-25
2023/03/14 00:51:18;;;;;;;4.40;3.00;;;;;;;3.57;58.96;98311.67;105737;1258;61878;-25
2023/03/14 00:53:48;;;;;;;5.80;3.00;;;;;;;3.55;58.89;98311.99;105678;1253;75189;-26
2023/03/14 00:56:17;;;;;;;8.60;3.90;;;;;;;3.52;59.20;98309.95;105708;1253;76038;-25
2023/03/14 00:58:45;;;;;;;7.90;3.80;;;;;;;3.52;59.15;98306.35;105643;1253;74058;-25
2023/03/14 01:01:17;;;;;;;8.80;3.20;;;;;;;3.51;59.33;98312.98;105506;1253;61093;-25
2023/03/14 01:03:46;;;;;;;3.70;2.30;;;;;;;3.44;59.68;98310.62;105515;1254;61162;-24
2023/03/14 01:06:20;;;;;;;6.10;3.50;;;;;;;3.38;59.97;98306.02;105682;1253;75077;-25
2023/03/14 01:08:50;;;;;;;6.80;3.20;;;;;;;3.34;60.32;98302.98;105659;1260;74982;-25
2023/03/14 01:11:21;;;;;;;10.10;3.90;;;;;;;3.32;60.53;98296.82;105719;1254;74272;-25
2023/03/14 01:13:52;;;;;;;5.80;3.60;;;;;;;3.29;60.82;98291.34;105642;1253;61116;-25
2023/03/14 01:16:23;;;;;;;6.40;3.60;;;;;;;3.26;61.04;98285.85;105585;1255;61171;-25
2023/03/14 01:18:52;;;;;;;5.30;3.40;;;;;;;3.24;61.41;98285.82;105248;1253;75398;-25
2023/03/14 01:21:23;;;;;;;8.90;3.10;;;;;;;3.23;61.46;98284.66;105665;1257;75982;-25
2023/03/14 01:23:53;;;;;;;7.20;3.20;;;;;;;3.22;61.64;98280.61;105488;1253;73962;-25
2023/03/14 01:26:26;;;;;;;5.40;2.90;;;;;;;3.23;61.73;98279.38;105370;1253;61163;-25
2023/03/14 01:30:28;;;;;;;6.40;3.70;;;;;;;3.22;62.13;98274.75;102664;1292;601124;-22
2023/03/14 01:33:02;;;;;;;6.90;2.80;;;;;;;3.23;62.05;98280.40;104791;1267;61282;-24
2023/03/14 01:35:32;;;;;;;5.20;3.20;;;;;;;3.24;61.91;98276.91;104875;1272;61983;-25
2023/03/14 01:38:00;;;;;;;7.50;3.00;;;;;;;3.25;61.78;98276.50;104900;1272;73805;-25
2023/03/14 01:40:30;;;;;;;9.00;4.00;;;;;;;3.26;62.00;98265.77;104915;1267;75776;-25
2023/03/14 01:43:06;;;;;;;8.20;3.80;;;;;;;3.25;62.16;98264.48;103398;1266;2015969;-27
2023/03/14 01:45:53;;;;;;;5.40;2.70;;;;;;;3.24;62.13;98272.92;105113;1263;61089;-24
2023/03/14 01:48:22;;;;;;;5.90;3.60;;;;;;;3.24;62.16;98278.09;105212;1267;61709;-25
2023/03/14 01:50:51;;;;;;;6.50;3.60;;;;;;;3.22;62.17;98277.50;105216;1267;73488;-25
2023/03/14 01:53:21;;;;;;;6.30;3.80;;;;;;;3.21;62.45;98279.13;104960;1269;75988;-25
2023/03/14 01:55:56;;;;;;;9.50;4.40;;;;;;;3.20;62.36;98282.95;105759;1256;73899;-25
2023/03/14 01:58:27;;;;;;;8.10;3.10;;;;;;;3.18;62.74;98277.63;105611;1254;61212;-25
2023/03/14 02:00:56;;;;;;;10.90;4.30;;;;;;;3.16;62.78;98272.95;105555;1258;61860;-25
2023/03/14 02:03:25;;;;;;;6.60;3.80;;;;;;;3.13;62.88;98266.62;105376;1259;73425;-25
2023/03/14 02:05:54;;;;;;;6.30;3.50;;;;;;;3.12;62.80;98268.15;105669;1254;75618;-25
2023/03/14 02:08:24;;;;;;;8.00;4.50;;;;;;;3.12;62.87;98262.34;105692;1254;74292;-25
2023/03/14 02:11:01;;;;;;;8.90;4.10;;;;;;;3.10;63.02;98264.34;105526;1260;61252;-24
2023/03/14 02:13:47;;;;;;;7.10;3.70;;;;;;;3.10;63.05;98260.41;105725;1255;61496;-24
2023/03/14 02:16:34;;;;;;;9.70;4.70;;;;;;;3.09;63.14;98259.27;105696;1254;74603;-24
2023/03/14 02:19:40;;;;;;;7.70;4.10;;;;;;;3.09;63.07;98258.75;105558;1266;75613;-24
2023/03/14 02:22:22;;;;;;;9.30;4.20;;;;;;;3.09;63.26;98261.14;105696;1254;74195;-24
2023/03/14 02:25:09;;;;;;;6.80;3.60;;;;;;;3.09;63.14;98247.11;105823;1256;61202;-24
2023/03/14 02:27:40;;;;;;;11.10;4.50;;;;;;;3.08;63.32;98253.16;105373;1254;61605;-24
2023/03/14 02:30:15;;;;;;;7.60;3.50;;;;;;;3.05;63.54;98251.64;105590;1254;74642;-24
2023/03/14 02:32:51;;;;;;;13.80;4.80;;;;;;;3.02;63.66;98244.48;105653;1254;75758;-24
2023/03/14 02:35:25;;;;;;;9.70;5.10;;;;;;;2.99;63.72;98238.15;105634;1260;74046;-24
2023/03/14 02:38:33;;;;;;;5.20;3.70;;;;;;;2.95;63.80;98240.79;105517;1259;61227;-25
2023/03/14 02:41:07;;;;;;;11.10;5.30;;;;;;;2.92;63.67;98236.33;105880;1254;61883;-24
2023/03/14 02:43:42;;;;;;;9.90;4.30;;;;;;;2.94;63.25;98233.98;105667;1254;74378;-24
2023/03/14 02:46:18;;;;;;;8.60;4.60;;;;;;;2.94;63.44;98233.31;105813;1254;75728;-24
2023/03/14 02:48:55;;;;;;;9.20;4.10;;;;;;;2.89;63.85;98231.20;105725;1260;73914;-24
2023/03/14 02:51:24;;;;;;;5.70;4.10;;;;;;;2.86;63.63;98222.52;105697;1259;61183;-24
2023/03/14 02:53:52;;;;;;;7.30;4.60;;;;;;;2.86;63.68;98220.99;105608;1254;61018;-24
2023/03/14 02:56:21;;;;;;;8.90;5.00;;;;;;;2.81;63.95;98219.86;105853;1254;74496;-24
2023/03/14 02:58:50;;;;;;;10.50;4.40;;;;;;;2.78;63.91;98222.45;105649;1257;74642;-25
2023/03/14 03:01:28;;;;;;;6.80;3.70;;;;;;;2.76;64.02;98226.70;105865;1259;73990;-24
2023/03/14 03:03:57;;;;;;;7.50;3.90;;;;;;;2.74;64.22;98221.37;105815;1255;60987;-24
2023/03/14 03:06:26;;;;;;;7.80;4.10;;;;;;;2.70;64.23;98221.27;105843;1255;61739;-24
2023/03/14 03:08:54;;;;;;;16.00;4.80;;;;;;;2.65;64.38;98216.24;105729;1260;74701;-24
2023/03/14 03:11:23;;;;;;;11.60;5.10;;;;;;;2.62;64.46;98215.95;105717;1260;75920;-24
2023/03/14 03:13:53;;;;;;;5.30;3.60;;;;;;;2.59;64.71;98214.28;105685;1253;74183;-24
2023/03/14 03:16:22;;;;;;;12.40;4.90;;;;;;;2.56;64.91;98218.33;105852;1254;61288;-24
2023/03/14 03:18:52;;;;;;;7.60;4.40;;;;;;;2.53;65.14;98216.31;105706;1255;61861;-24
2023/03/14 03:21:23;;;;;;;5.60;3.80;;;;;;;2.51;65.14;98217.63;105854;1254;74563;-24
2023/03/14 03:23:53;;;;;;;6.60;3.60;;;;;;;2.48;65.13;98211.28;105819;1254;75630;-24
2023/03/14 03:26:23;;;;;;;10.90;3.60;;;;;;;2.47;65.48;98214.60;105653;1254;73976;-24
2023/03/14 03:28:51;;;;;;;9.00;4.70;;;;;;;2.44;65.48;98207.92;105668;1255;61084;-24
2023/03/14 03:31:20;;;;;;;7.40;4.50;;;;;;;2.42;65.64;98208.77;105579;1254;61909;-24
2023/03/14 03:33:49;;;;;;;7.80;4.50;;;;;;;2.43;65.60;98205.13;105757;1254;74541;-24
2023/03/14 03:36:23;;;;;;;9.30;5.20;;;;;;;2.40;65.91;98197.23;105878;1254;75772;-25
2023/03/14 03:38:52;;;;;;;6.90;3.80;;;;;;;2.37;66.07;98190.55;105718;1262;72469;-24
2023/03/14 03:41:28;;;;;;;7.20;4.10;;;;;;;2.76;65.64;98192.47;105821;1254;61169;-24
2023/03/14 03:43:57;;;;;;;7.20;4.40;;;;;;;3.10;64.31;98190.94;105726;1260;61073;-24
2023/03/14 03:46:26;;;;;;;7.90;4.60;;;;;;;3.11;63.84;98186.96;105855;1259;74521;-24
2023/03/14 03:48:56;;;;;;;8.20;4.40;;;;;;;3.02;63.89;98195.91;105639;1259;76308;-24
2023/03/14 03:51:25;;;;;;;6.60;4.00;;;;;;;2.89;64.36;98196.08;105457;1263;73246;-24
2023/03/14 03:53:56;;;;;;;8.50;4.40;;;;;;;2.75;64.78;98200.59;105828;1253;61079;-24
2023/03/14 03:56:31;;;;;;;6.40;3.80;;;;;;;2.61;65.34;98196.78;105602;1260;61090;-24
2023/03/14 03:59:04;;;;;;;11.80;4.60;;;;;;;2.47;65.86;98189.11;105758;1258;74551;-24
2023/03/14 04:01:34;;;;;;;9.80;5.50;;;;;;;2.37;66.12;98183.02;105649;1254;75566;-24
2023/03/14 04:04:03;;;;;;;7.60;4.60;;;;;;;2.28;66.57;98185.80;105675;1260;74279;-24
2023/03/14 04:06:33;;;;;;;9.00;4.70;;;;;;;2.22;66.76;98187.84;105717;1259;61150;-24
2023/03/14 04:09:02;;;;;;;7.00;4.50;;;;;;;2.17;67.07;98190.22;105923;1254;61125;-24
2023/03/14 04:11:38;;;;;;;6.70;4.50;;;;;;;2.12;67.34;98185.91;105688;1258;74329;-25
2023/03/14 04:14:23;;;;;;;8.40;4.20;;;;;;;2.42;67.16;98178.27;105830;1263;75821;-24
2023/03/14 04:17:08;;;;;;;6.00;3.90;;;;;;;2.95;65.38;98179.74;105745;1258;74203;-24
2023/03/14 04:19:37;;;;;;;8.90;4.90;;;;;;;2.98;64.85;98182.11;105627;1260;61119;-24
2023/03/14 04:22:08;;;;;;;7.30;5.00;;;;;;;2.85;65.07;98173.72;105832;1254;61875;-25
2023/03/14 04:24:46;;;;;;;9.40;5.60;;;;;;;2.68;65.53;98175.63;105733;1258;74667;-24
2023/03/14 04:27:15;;;;;;;11.40;4.10;;;;;;;2.53;65.86;98171.41;105754;1254;74763;-24
2023/03/14 04:29:46;;;;;;;6.20;3.70;;;;;;;2.40;66.42;98171.37;105867;1259;73960;-24
2023/03/14 04:32:17;;;;;;;7.90;4.60;;;;;;;2.28;66.73;98177.76;105696;1254;61069;-24
2023/03/14 04:34:46;;;;;;;6.20;4.50;;;;;;;2.14;67.51;98172.59;105879;1257;61884;-24
2023/03/14 04:37:16;;;;;;;5.00;3.50;;;;;;;2.09;67.72;98180.59;105750;1260;74578;-24
2023/03/14 04:39:45;;;;;;;6.50;3.70;;;;;;;2.03;68.00;98177.86;105722;1254;75839;-24
2023/03/14 04:42:21;;;;;;;7.80;4.30;;;;;;;2.02;68.12;98170.92;105699;1259;74845;-24
2023/03/14 04:44:50;;;;;;;7.50;5.10;;;;;;;2.44;67.51;98165.27;105699;1254;62600;-24
2023/03/14 04:47:21;;;;;;;8.20;4.50;;;;;;;2.96;65.61;98167.52;105850;1257;61134;-24
2023/03/14 04:49:50;;;;;;;7.80;4.40;;;;;;;3.05;64.94;98161.13;105848;1257;73395;-24
2023/03/14 04:52:20;;;;;;;5.70;4.10;;;;;;;2.89;65.10;98157.85;105603;1260;75841;-24
2023/03/14 04:54:48;;;;;;;7.20;4.20;;;;;;;2.76;65.60;98146.87;105511;1259;74169;-24
2023/03/14 04:57:18;;;;;;;6.20;4.70;;;;;;;2.63;66.14;98146.80;105631;1254;61056;-24
2023/03/14 04:59:47;;;;;;;7.50;5.30;;;;;;;2.49;66.71;98151.09;105786;1256;62016;-24
2023/03/14 05:02:37;;;;;;;9.00;5.50;;;;;;;2.36;66.93;98150.33;105829;1257;74542;-24
2023/03/14 05:05:13;;;;;;;9.10;4.30;;;;;;;2.29;67.31;98140.69;105836;1257;75633;-24
2023/03/14 05:07:51;;;;;;;10.70;4.30;;;;;;;2.22;67.52;98148.46;105664;1259;73994;-24
2023/03/14 05:10:55;;;;;;;5.60;3.60;;;;;;;2.18;67.75;98153.49;105874;1254;61138;-24
2023/03/14 05:13:48;;;;;;;4.80;3.50;;;;;;;2.14;68.12;98147.59;105694;1264;61393;-24
2023/03/14 05:16:52;;;;;;;6.70;4.00;;;;;;;2.66;67.26;98147.45;105742;1260;74476;-24
2023/03/14 05:19:31;;;;;;;9.10;5.30;;;;;;;3.19;65.11;98149.75;105886;1266;75846;-24
2023/03/14 05:22:13;;;;;;;5.60;3.90;;;;;;;3.25;64.51;98152.13;105910;1258;73051;-24
2023/03/14 05:25:00;;;;;;;5.20;4.00;;;;;;;3.15;64.53;98157.00;105811;1253;61177;-24
2023/03/14 05:27:55;;;;;;;7.30;4.40;;;;;;;3.02;64.95;98159.59;105883;1257;61634;-24
2023/03/14 05:30:39;;;;;;;7.20;5.10;;;;;;;2.95;65.23;98162.63;105879;1260;73980;-24
2023/03/14 05:33:26;;;;;;;6.50;4.30;;;;;;;2.90;65.44;98161.92;105840;1255;75640;-24
2023/03/14 05:36:13;;;;;;;5.30;3.40;;;;;;;2.79;65.52;98154.66;105825;1254;74269;-24
2023/03/14 05:39:11;;;;;;;10.00;5.40;;;;;;;2.69;65.94;98149.83;105753;1254;61178;-24
2023/03/14 05:41:42;;;;;;;6.30;3.80;;;;;;;2.65;66.35;98153.70;105707;1257;61165;-24
2023/03/14 05:44:25;;;;;;;8.50;5.40;;;;;;;2.65;66.80;98152.54;105869;1254;74251;-24
2023/03/14 05:47:03;;;;;;;7.70;4.30;;;;;;;2.68;66.39;98148.02;105731;1255;75941;-24
2023/03/14 05:49:52;;;;;;;5.90;4.30;;;;;;;2.72;66.21;98147.42;105889;1257;74226;-24
2023/03/14 05:52:44;;;;;;;6.10;4.50;;;;;;;2.84;66.21;98152.02;105813;1256;61128;-24
2023/03/14 05:55:53;;;;;;;6.90;4.10;;;;;;;2.94;65.89;98157.00;105269;1263;61645;-25
2023/03/14 05:58:45;;;;;;;5.50;3.50;;;;;;;3.05;65.34;98154.11;104933;1263;75444;-24
2023/03/14 06:01:31;;;;;;;7.30;5.00;;;;;;;3.15;65.25;98145.70;105769;1257;76455;-24
2023/03/14 06:04:06;;;;;;;8.40;4.70;;;;;;;3.23;64.88;98147.61;105862;1257;74165;-24
2023/03/14 06:14:51;;;;;;;10.50;4.80;;;;;;;3.52;64.27;98136.10;102697;1290;600317;-25
2023/03/14 06:17:27;;;;;;;5.60;4.20;;;;;;;3.54;63.59;98129.09;104909;1266;61078;-23
2023/03/14 06:20:02;;;;;;;6.40;3.90;;;;;;;3.63;64.02;98131.96;105128;1269;61178;-24
2023/03/14 06:22:31;;;;;;;7.50;4.00;;;;;;;3.76;63.53;98132.95;104878;1266;73518;-25
2023/03/14 06:25:05;;;;;;;8.00;4.30;;;;;;;3.85;62.97;98127.91;104908;1266;76122;-26
2023/03/14 06:27:53;;;;;;;10.30;4.90;;;;;;;3.97;62.38;98126.53;103447;1267;1961704;-25
2023/03/14 06:30:23;;;;;;;5.90;3.60;;;;;;;4.09;62.57;98127.95;105232;1263;61409;-22
2023/03/14 06:32:53;;;;;;;5.50;3.40;;;;;;;4.24;62.12;98126.91;105216;1263;61129;-24
2023/03/14 06:35:23;;;;;;;9.00;4.40;;;;;;;4.35;61.70;98120.85;105954;1253;73417;-26
2023/03/14 06:37:53;;;;;;;6.00;4.20;;;;;;;4.49;61.19;98121.70;106005;1253;74810;-25
2023/03/14 06:40:21;;;;;;;5.20;4.10;;;;;;;4.53;60.86;98120.58;105949;1251;74198;-25
2023/03/14 06:43:02;;;;;;;7.10;4.40;;;;;;;4.63;60.24;98122.00;105692;1253;61077;-23
2023/03/14 06:45:32;;;;;;;6.50;3.90;;;;;;;4.74;60.44;98118.78;105784;1254;61592;-23
2023/03/14 06:48:06;;;;;;;5.40;4.20;;;;;;;4.98;60.17;98114.95;105949;1253;74318;-23
2023/03/14 06:50:41;;;;;;;4.10;3.10;;;;;;;5.10;59.34;98116.71;105936;1254;75326;-23
2023/03/14 06:53:10;;;;;;;5.90;3.10;;;;;;;5.17;58.94;98110.69;105754;1253;76377;-24
2023/03/14 06:55:40;;;;;;;4.20;3.80;;;;;;;5.22;58.84;98114.41;105839;1253;61118;-25
2023/03/14 06:58:09;;;;;;;6.00;3.80;;;;;;;5.25;59.00;98110.94;105866;1257;61144;-24
2023/03/14 07:00:42;;;;;;;3.30;2.60;;;;;;;5.26;58.73;98102.83;105901;1253;74633;-25
2023/03/14 07:03:13;;;;;;;7.90;4.90;;;;;;;5.31;58.67;98107.35;105894;1253;75545;-25
2023/03/14 07:05:45;;;;;;;4.10;3.10;;;;;;;5.44;58.18;98107.34;105973;1253;74170;-25
2023/03/14 07:08:14;;;;;;;3.20;2.50;;;;;;;5.54;57.66;98107.05;105935;1256;61158;-25
2023/03/14 07:10:43;;;;;;;4.70;3.10;;;;;;;5.53;57.57;98101.61;105957;1253;62079;-25
2023/03/14 07:13:12;;;;;;;4.60;3.00;;;;;;;5.60;57.44;98100.60;105937;1254;74564;-25
2023/03/14 07:15:50;;;;;;;3.50;2.60;;;;;;;5.77;57.83;98112.41;105836;1259;75693;-25
2023/03/14 07:18:19;;;;;;;4.40;3.10;;;;;;;5.99;57.81;98120.70;105877;1256;74261;-24
2023/03/14 07:20:52;;;;;;;3.60;3.00;;;;;;;6.18;57.16;98115.66;105987;1253;61074;-24
2023/03/14 07:23:21;;;;;;;9.60;3.00;;;;;;;6.24;56.66;98118.30;105908;1256;61530;-25
2023/03/14 07:25:53;;;;;;;7.30;3.10;;;;;;;6.41;56.82;98120.97;105924;1253;74651;-25
2023/03/14 07:28:27;;;;;;;4.90;2.60;;;;;;;6.60;57.07;98112.90;105844;1259;76042;-25
2023/03/14 07:31:00;;;;;;;4.40;2.60;;;;;;;6.85;55.96;98107.93;105894;1254;74135;-24
2023/03/14 07:33:34;;;;;;;3.80;2.50;;;;;;;7.02;55.71;98092.46;105908;1252;61134;-24
2023/03/14 07:36:03;;;;;;;4.30;2.90;;;;;;;7.11;54.45;98085.65;105637;1259;61668;-25
2023/03/14 07:38:31;;;;;;;5.30;4.10;;;;;;;7.13;53.78;98083.45;105813;1255;74313;-25
2023/03/14 07:41:10;;;;;;;5.50;3.10;;;;;;;7.02;54.09;98084.86;105777;1259;74859;-25
2023/03/14 07:43:46;;;;;;;4.80;2.40;;;;;;;7.04;53.46;98089.54;105660;1254;74402;-22
2023/03/14 07:46:19;;;;;;;4.40;2.40;;;;;;;7.16;53.99;98100.07;105737;1253;61777;-25
2023/03/14 07:48:49;;;;;;;3.00;2.00;;;;;;;7.42;54.02;98099.38;105761;1252;61602;-24
2023/03/14 07:51:17;;;;;;;4.30;2.80;;;;;;;7.56;53.19;98087.49;105723;1256;73337;-25
2023/03/14 07:53:47;;;;;;;14.20;3.00;;;;;;;7.52;53.30;98088.55;105934;1255;75653;-25
2023/03/14 07:56:15;;;;;;;3.90;2.40;;;;;;;7.69;53.51;98085.73;105915;1253;74012;-24
2023/03/14 07:58:44;;;;;;;4.90;3.00;;;;;;;7.87;52.98;98083.70;105947;1253;61116;-26
2023/03/14 08:01:14;;;;;;;4.90;2.30;;;;;;;7.94;52.09;98084.70;105965;1256;61802;-25
2023/03/14 08:03:44;;;;;;;3.70;2.40;;;;;;;7.97;52.49;98082.52;105641;1256;74286;-25
2023/03/14 08:06:12;;;;;;;4.30;2.50;;;;;;;8.07;52.20;98078.98;105635;1259;74033;-24
2023/03/14 08:08:41;;;;;;;3.90;2.40;;;;;;;8.26;52.26;98077.05;105787;1256;74251;-24
2023/03/14 08:11:09;;;;;;;2.20;1.50;;;;;;;8.37;50.92;98079.42;105933;1252;62059;-25
2023/03/14 08:13:39;;;;;;;3.40;2.00;;;;;;;8.49;51.19;98085.08;105775;1251;61842;-23
2023/03/14 08:16:08;;;;;;;3.60;2.40;;;;;;;8.74;51.27;98088.11;105736;1251;74708;-23
2023/03/14 08:18:38;;;;;;;3.90;2.10;;;;;;;8.99;50.38;98087.63;105932;1257;76143;-23
2023/03/14 08:21:07;;;;;;;3.10;2.50;;;;;;;9.15;49.63;98074.04;105953;1256;73931;-23
2023/03/14 08:23:36;;;;;;;5.00;3.00;;;;;;;9.29;49.69;98068.16;105743;1257;61479;-23
2023/03/14 08:26:06;;;;;;;4.10;2.40;;;;;;;9.30;49.08;98062.65;105804;1255;62039;-23
2023/03/14 08:28:35;;;;;;;4.10;2.30;;;;;;;9.36;48.79;98073.00;105911;1256;74541;-23
2023/03/14 08:31:04;;;;;;;4.60;2.30;;;;;;;9.39;49.04;98076.73;105933;1256;75877;-23
2023/03/14 08:33:34;;;;;;;3.80;2.10;;;;;;;9.43;48.68;98073.15;105792;1254;74119;-22
2023/03/14 08:36:02;;;;;;;5.00;2.20;;;;;;;9.33;47.83;98063.21;105916;1252;62131;-23
2023/03/14 08:38:32;;;;;;;4.10;2.00;;;;;;;9.22;49.15;98069.63;105921;1252;61381;-23
2023/03/14 08:41:01;;;;;;;3.90;2.30;;;;;;;9.29;48.65;98065.04;105728;1258;74293;-23
2023/03/14 08:43:29;;;;;;;4.10;2.10;;;;;;;9.34;48.54;98061.38;105651;1254;75841;-23
2023/03/14 08:45:58;;;;;;;4.40;2.20;;;;;;;9.43;48.91;98063.91;105873;1256;74323;-23
2023/03/14 08:48:27;;;;;;;4.00;2.40;;;;;;;9.59;48.94;98069.50;105660;1258;61112;-23
2023/03/14 08:51:10;;;;;;;3.00;1.60;;;;;;;9.59;48.72;98069.88;105804;1259;62172;-23
2023/03/14 08:53:39;;;;;;;6.20;2.60;;;;;;;9.76;48.93;98068.48;105704;1257;73936;-23
2023/03/14 08:56:09;;;;;;;4.90;2.30;;;;;;;9.89;49.16;98072.52;105901;1256;75854;-23
2023/03/14 08:58:38;;;;;;;4.30;1.80;;;;;;;10.08;48.49;98070.73;105608;1259;73019;-23
2023/03/14 09:01:08;;;;;;;3.60;2.40;;;;;;;10.21;47.33;98065.46;105846;1256;61186;-23
2023/03/14 09:03:38;;;;;;;3.00;2.10;;;;;;;10.48;48.01;98072.14;105749;1257;61677;-23
2023/03/14 09:06:08;;;;;;;3.00;1.90;;;;;;;10.67;47.51;98069.82;105870;1256;74915;-23
2023/03/14 09:08:38;;;;;;;4.10;2.70;;;;;;;10.74;46.17;98053.15;105731;1256;75780;-23
2023/03/14 09:11:08;;;;;;;4.80;2.50;;;;;;;10.61;46.30;98056.79;105757;1256;74238;-23
2023/03/14 09:13:44;;;;;;;3.00;1.90;;;;;;;10.68;46.69;98051.80;105810;1252;61985;-24
2023/03/14 09:16:13;;;;;;;5.40;2.20;;;;;;;10.99;46.82;98053.78;105830;1257;61865;-23
2023/03/14 09:18:42;;;;;;;3.90;2.40;;;;;;;11.22;45.97;98044.44;105746;1255;74195;-24
2023/03/14 09:21:17;;;;;;;4.30;2.10;;;;;;;11.08;45.43;98050.83;105651;1259;75747;-23
2023/03/14 09:23:46;;;;;;;3.20;2.20;;;;;;;11.18;46.36;98051.67;105953;1256;74336;-24
2023/03/14 09:26:15;;;;;;;2.30;1.40;;;;;;;11.33;46.08;98046.67;105930;1255;61957;-24
2023/03/14 09:28:43;;;;;;;3.40;1.80;;;;;;;11.50;45.32;98043.11;105607;1256;61792;-24
2023/03/14 09:31:12;;;;;;;6.10;2.30;;;;;;;11.79;45.38;98040.17;105679;1258;74308;-23
2023/03/14 09:33:40;;;;;;;3.50;2.10;;;;;;;11.94;44.66;98028.35;105759;1260;75680;-23
2023/03/14 09:36:10;;;;;;;4.40;1.80;;;;;;;12.15;44.37;98031.02;105591;1255;74313;-24
2023/03/14 09:38:39;;;;;;;5.00;2.80;;;;;;;12.16;42.46;98013.20;105727;1252;61944;-24
2023/03/14 09:41:41;;;;;;;2.40;1.70;;;;;;;11.80;42.51;98014.15;105780;1256;61870;-24
2023/03/14 09:44:19;;;;;;;2.80;1.70;;;;;;;11.94;41.98;98002.42;105524;1254;74777;-24
2023/03/14 09:46:57;;;;;;;3.60;2.00;;;;;;;12.04;42.62;98008.39;105616;1253;75611;-24
2023/03/14 09:49:42;;;;;;;3.90;2.10;;;;;;;12.26;43.05;98003.13;105464;1257;73785;-24
2023/03/14 09:52:12;;;;;;;2.10;1.40;;;;;;;12.50;42.69;97988.29;105646;1268;61221;-24
2023/03/14 09:54:58;;;;;;;4.10;2.40;;;;;;;12.23;42.72;97988.99;105640;1255;61112;-24
2023/03/14 09:57:27;;;;;;;3.20;2.30;;;;;;;11.96;42.66;97988.81;105643;1259;74630;-24
2023/03/14 09:59:58;;;;;;;3.80;2.00;;;;;;;11.97;42.26;97982.60;105830;1256;75829;-24
2023/03/14 10:02:33;;;;;;;3.00;1.90;;;;;;;12.15;42.77;97984.48;105576;1262;73489;-24
2023/03/14 10:05:07;;;;;;;2.80;2.10;;;;;;;12.33;42.90;97985.39;105727;1260;61234;-24
2023/03/14 10:07:38;;;;;;;5.30;2.30;;;;;;;12.47;41.74;97987.02;105724;1253;61141;-24
2023/03/14 10:10:18;;;;;;;3.50;2.00;;;;;;;12.50;41.66;97984.57;105738;1259;74463;-24
2023/03/14 10:13:08;;;;;;;3.40;1.90;;;;;;;12.34;42.58;97982.15;105457;1261;74998;-24
2023/03/14 10:15:37;;;;;;;2.90;2.20;;;;;;;12.25;42.59;97973.02;105790;1256;74173;-24
2023/03/14 10:18:12;;;;;;;2.60;2.20;;;;;;;12.21;42.91;97972.03;105831;1254;62621;-24
2023/03/14 10:20:43;;;;;;;3.60;2.20;;;;;;;12.12;42.17;97964.81;105712;1256;61096;-24
2023/03/14 10:23:12;;;;;;;3.70;2.20;;;;;;;11.90;41.98;97959.56;105700;1258;74310;-23
2023/03/14 10:26:03;;;;;;;2.80;1.80;;;;;;;11.58;43.29;97964.86;105750;1258;75660;-24
2023/03/14 10:28:38;;;;;;;3.50;1.90;;;;;;;11.65;43.48;97966.62;105709;1259;74097;-25
2023/03/14 10:31:07;;;;;;;4.40;2.30;;;;;;;11.70;43.53;97960.05;105705;1256;61862;-24
2023/03/14 10:33:36;;;;;;;3.50;2.30;;;;;;;11.67;43.40;97952.38;105917;1257;61852;-24
2023/03/14 10:36:20;;;;;;;4.60;1.60;;;;;;;11.40;41.96;97946.26;105772;1261;74345;-25
2023/03/14 10:38:50;;;;;;;2.90;2.10;;;;;;;11.21;43.13;97950.78;105568;1256;75491;-24
2023/03/14 10:41:31;;;;;;;6.20;1.70;;;;;;;11.12;43.78;97950.90;105744;1257;74225;-25
2023/03/14 10:44:01;;;;;;;4.40;2.50;;;;;;;11.37;44.90;97945.70;105744;1267;61503;-24
2023/03/14 10:46:34;;;;;;;3.20;1.70;;;;;;;11.84;45.09;97942.46;105783;1257;61671;-24
2023/03/14 10:49:36;;;;;;;2.70;1.90;;;;;;;12.16;44.19;97933.86;105902;1254;75389;-23
2023/03/14 10:52:19;;;;;;;3.50;2.40;;;;;;;12.32;44.44;97917.45;105747;1256;75761;-24
2023/03/14 10:54:59;;;;;;;5.90;2.00;;;;;;;12.31;43.53;97928.21;105744;1256;74072;-23
2023/03/14 10:57:28;;;;;;;2.60;1.70;;;;;;;12.31;43.62;97920.00;105720;1254;61149;-24
2023/03/14 10:59:56;;;;;;;2.70;1.60;;;;;;;12.35;44.01;97917.62;105947;1251;61107;-24
2023/03/14 11:02:44;;;;;;;2.80;1.70;;;;;;;12.41;42.14;97915.84;105925;1256;75557;-24
2023/03/14 11:05:34;;;;;;;4.20;2.30;;;;;;;12.61;42.85;97910.17;105754;1254;75862;-24
2023/03/14 11:08:09;;;;;;;5.00;2.40;;;;;;;13.08;42.17;97908.57;105581;1257;73809;-25
2023/03/14 11:10:42;;;;;;;4.20;2.60;;;;;;;13.43;41.58;97904.80;105520;1259;61894;-25
2023/03/14 11:13:25;;;;;;;2.40;1.90;;;;;;;13.65;41.30;97893.98;105836;1257;61138;-24
2023/03/14 11:15:58;;;;;;;2.70;2.00;;;;;;;13.73;40.85;97880.55;105773;1251;74367;-24
2023/03/14 11:18:36;;;;;;;4.00;2.20;;;;;;;13.61;39.58;97867.59;105711;1258;75636;-24
2023/03/14 11:21:09;;;;;;;2.60;1.80;;;;;;;13.49;39.64;97869.25;105697;1261;73242;-24
2023/03/14 11:23:43;;;;;;;8.00;2.30;;;;;;;13.30;38.67;97874.59;105886;1256;61863;-23
2023/03/14 11:26:18;;;;;;;2.50;1.80;;;;;;;13.22;39.11;97871.63;105459;1256;61033;-23
2023/03/14 11:28:50;;;;;;;2.40;2.00;;;;;;;13.49;39.68;97873.79;105693;1254;75401;-24
2023/03/14 11:31:25;;;;;;;1.80;1.30;;;;;;;13.54;38.88;97872.13;105712;1257;75837;-24
2023/03/14 11:34:06;;;;;;;3.50;2.30;;;;;;;13.62;39.25;97872.38;105659;1255;74473;-24
2023/03/14 11:36:39;;;;;;;3.20;1.80;;;;;;;13.98;40.70;97866.20;105690;1259;61818;-23
2023/03/14 11:39:18;;;;;;;3.20;1.70;;;;;;;14.21;40.79;97856.58;105719;1254;61196;-23
2023/03/14 11:41:52;;;;;;;3.80;1.70;;;;;;;14.31;39.93;97850.73;105654;1254;75364;-24
2023/03/14 11:44:25;;;;;;;4.80;1.60;;;;;;;14.18;39.48;97848.85;105657;1254;75785;-23
2023/03/14 11:47:19;;;;;;;4.70;1.90;;;;;;;13.83;40.24;97855.71;105701;1253;74233;-23
2023/03/14 11:49:58;;;;;;;2.90;2.30;;;;;;;13.64;40.90;97847.52;105765;1258;61349;-23
2023/03/14 11:52:49;;;;;;;3.80;2.20;;;;;;;13.58;40.90;97850.66;105684;1261;61995;-24
2023/03/14 11:55:39;;;;;;;3.80;2.00;;;;;;;13.61;40.65;97842.09;105719;1257;75464;-23
2023/03/14 11:58:29;;;;;;;3.10;2.00;;;;;;;13.73;40.40;97848.55;105679;1257;75760;-23
2023/03/14 12:00:58;;;;;;;3.30;1.90;;;;;;;13.88;40.37;97839.63;105580;1253;74088;-24
2023/03/14 12:03:46;;;;;;;3.60;2.30;;;;;;;13.98;40.38;97842.33;105564;1251;62012;-23
2023/03/14 12:06:24;;;;;;;4.40;2.60;;;;;;;14.09;39.88;97843.67;105689;1253;61014;-23
2023/03/14 12:08:57;;;;;;;4.10;1.80;;;;;;;14.11;39.40;97837.80;105661;1254;75312;-24
2023/03/14 12:11:44;;;;;;;3.20;1.50;;;;;;;14.18;39.35;97837.08;105635;1256;74913;-23
2023/03/14 12:14:29;;;;;;;6.40;2.20;;;;;;;13.90;38.12;97842.67;105895;1254;74279;-24